Time;durP1;ratioP1;P1;durP2;ratioP2;P2;SDS_P1;SDS_P2;PMS_P1;PMS_P2;Temp;Humidity;BMP_temperature;BMP_pressure;BME280_temperature;BME280_humidity;BME280_pressure;Samples;Min_cycle;Max_cycle;Signal;HPM_P1;HPM_P2
2022/11/25 00:00:22;;;;;;;;;;;6.10;99.90;;;;;;5019325;28;19920;-79
2022/11/25 00:02:47;;;;;;;;;;;6.10;99.90;;;;;;5035847;28;19920;-79
2022/11/25 00:05:13;;;;;;;;;;;6.10;99.90;;;;;;5018326;28;19921;-80
2022/11/25 00:07:38;;;;;;;;;;;6.10;99.90;;;;;;5034896;28;19929;-80
2022/11/25 00:10:07;;;;;;;;;;;6.10;99.90;;;;;;5002486;28;19925;-79
2022/11/25 00:12:33;;;;;;;;;;;6.10;99.90;;;;;;5036947;28;19986;-79
2022/11/25 00:14:59;;;;;;;;;;;6.20;99.90;;;;;;5002947;28;20370;-80
2022/11/25 00:17:24;;;;;;;;;;;6.10;99.90;;;;;;5014778;28;19925;-79
2022/11/25 00:19:50;;;;;;;;;;;6.00;99.90;;;;;;5003986;28;19927;-79
2022/11/25 00:22:15;;;;;;;;;;;6.30;99.90;;;;;;5036547;28;19921;-79
2022/11/25 00:24:41;;;;;;;;;;;6.20;99.90;;;;;;5014998;28;19921;-80
2022/11/25 00:27:07;;;;;;;;;;;6.00;99.90;;;;;;5017979;28;20023;-79
2022/11/25 00:29:32;;;;;;;;;;;6.00;99.90;;;;;;5020960;28;19924;-80
2022/11/25 00:31:58;;;;;;;;;;;6.10;99.90;;;;;;5033644;28;19920;-79
2022/11/25 00:34:23;;;;;;;;;;;6.10;99.90;;;;;;5035167;28;19928;-78
2022/11/25 00:36:49;;;;;;;;;;;6.10;99.90;;;;;;5020898;28;19990;-79
2022/11/25 00:39:15;;;;;;;;;;;6.10;99.90;;;;;;5039920;28;20409;-80
2022/11/25 00:44:35;;;;;;;;;;;6.20;99.90;;;;;;5051468;28;19924;-79
2022/11/25 00:47:06;;;;;;;;;;;7.10;99.90;;;;;;5017945;28;19971;-79
2022/11/25 00:49:32;;;;;;;;;;;6.80;99.90;;;;;;5036858;28;19920;-79
2022/11/25 00:51:57;;;;;;;;;;;6.20;99.90;;;;;;5020663;28;19921;-79
2022/11/25 00:54:23;;;;;;;;;;;6.20;99.90;;;;;;5036416;28;20149;-79
2022/11/25 00:56:49;;;;;;;;;;;6.20;99.90;;;;;;5018754;28;19928;-79
2022/11/25 00:59:15;;;;;;;;;;;6.20;99.90;;;;;;5001842;28;20382;-80
2022/11/25 01:01:40;;;;;;;;;;;6.20;99.90;;;;;;5019359;28;19970;-79
2022/11/25 01:04:06;;;;;;;;;;;6.20;99.90;;;;;;5037532;28;19921;-80
2022/11/25 01:06:32;;;;;;;;;;;7.00;99.90;;;;;;5036859;28;20009;-79
2022/11/25 01:08:58;;;;;;;;;;;7.40;99.90;;;;;;5033503;28;19924;-80
2022/11/25 01:11:23;;;;;;;;;;;6.30;99.90;;;;;;5018414;28;20407;-79
2022/11/25 01:13:49;;;;;;;;;;;6.30;99.90;;;;;;5033668;28;20038;-79
2022/11/25 01:16:19;;;;;;;;;;;6.30;99.90;;;;;;5018597;28;19921;-79
2022/11/25 01:18:45;;;;;;;;;;;6.30;99.90;;;;;;5031823;28;20478;-79
2022/11/25 01:21:14;;;;;;;;;;;6.30;99.90;;;;;;5018249;28;19921;-79
2022/11/25 01:23:41;;;;;;;;;;;6.20;99.90;;;;;;5034709;28;19921;-79
2022/11/25 01:26:08;;;;;;;;;;;6.50;99.90;;;;;;5017641;28;19921;-80
2022/11/25 01:28:33;;;;;;;;;;;6.40;99.90;;;;;;5050555;28;19947;-80
2022/11/25 01:31:03;;;;;;;;;;;6.20;99.90;;;;;;4999357;28;20446;-80
2022/11/25 01:33:31;;;;;;;;;;;6.20;99.90;;;;;;5035133;28;19972;-79
2022/11/25 01:36:03;;;;;;;;;;;6.20;99.90;;;;;;5018540;28;19921;-79
2022/11/25 01:38:29;;;;;;;;;;;6.20;99.90;;;;;;5001967;28;19921;-79
2022/11/25 01:40:55;;;;;;;;;;;6.20;99.90;;;;;;5017771;28;19932;-80
2022/11/25 01:43:21;;;;;;;;;;;6.20;99.90;;;;;;5035382;28;20392;-79
2022/11/25 01:45:46;;;;;;;;;;;6.50;99.90;;;;;;5021528;28;19925;-80
2022/11/25 01:48:15;;;;;;;;;;;6.20;99.90;;;;;;5019877;28;20298;-79
2022/11/25 01:50:41;;;;;;;;;;;6.20;99.90;;;;;;5035784;28;19947;-80
2022/11/25 01:53:09;;;;;;;;;;;6.30;99.90;;;;;;5034768;28;19935;-79
2022/11/25 01:55:35;;;;;;;;;;;6.70;99.90;;;;;;5036617;28;19931;-80
2022/11/25 01:58:04;;;;;;;;;;;6.20;99.90;;;;;;5023480;28;19921;-80
2022/11/25 02:00:29;;;;;;;;;;;6.30;99.90;;;;;;5016822;28;20015;-80
2022/11/25 02:02:56;;;;;;;;;;;6.30;99.90;;;;;;5033428;28;19933;-80
2022/11/25 02:05:26;;;;;;;;;;;6.30;99.90;;;;;;5034247;28;19936;-79
2022/11/25 02:07:51;;;;;;;;;;;6.30;99.90;;;;;;5036484;28;19943;-79
2022/11/25 02:10:20;;;;;;;;;;;6.40;99.90;;;;;;5035159;28;19990;-79
2022/11/25 02:12:46;;;;;;;;;;;6.40;99.90;;;;;;5016187;28;20382;-80
2022/11/25 02:15:12;;;;;;;;;;;6.50;99.90;;;;;;5016603;28;20137;-79
2022/11/25 02:17:38;;;;;;;;;;;6.40;99.90;;;;;;5032032;28;19920;-80
2022/11/25 02:20:07;;;;;;;;;;;6.40;99.90;;;;;;5019198;28;20007;-80
2022/11/25 02:22:52;;;;;;;;;;;6.40;99.90;;;;;;5032542;28;20370;-81
2022/11/25 02:25:17;;;;;;;;;;;6.40;99.90;;;;;;5015432;28;19921;-80
2022/11/25 02:27:44;;;;;;;;;;;6.40;99.90;;;;;;5034385;28;19956;-80
2022/11/25 02:30:10;;;;;;;;;;;6.40;99.90;;;;;;5033484;28;20630;-80
2022/11/25 02:32:41;;;;;;;;;;;6.40;99.90;;;;;;4999995;28;19979;-80
2022/11/25 02:35:27;;;;;;;;;;;6.40;99.90;;;;;;5034495;28;20339;-80
2022/11/25 02:37:55;;;;;;;;;;;6.40;99.90;;;;;;5014563;28;19940;-80
2022/11/25 02:40:21;;;;;;;;;;;6.50;99.90;;;;;;5032553;28;20019;-79
2022/11/25 02:42:49;;;;;;;;;;;6.40;99.90;;;;;;5017595;28;19964;-80
2022/11/25 02:45:16;;;;;;;;;;;6.40;99.90;;;;;;5020267;28;20314;-80
2022/11/25 02:47:42;;;;;;;;;;;6.40;99.90;;;;;;5035508;28;19932;-79
2022/11/25 02:50:07;;;;;;;;;;;7.50;99.90;;;;;;5018966;28;19921;-79
2022/11/25 02:52:33;;;;;;;;;;;6.50;99.90;;;;;;5000029;28;19924;-80
2022/11/25 02:54:58;;;;;;;;;;;6.50;99.90;;;;;;5035302;28;19968;-80
2022/11/25 02:57:24;;;;;;;;;;;6.50;99.90;;;;;;5017213;28;19933;-81
2022/11/25 02:59:49;;;;;;;;;;;6.50;99.90;;;;;;5032641;28;19921;-81
2022/11/25 03:02:15;;;;;;;;;;;6.80;99.90;;;;;;5033932;28;19921;-81
2022/11/25 03:04:40;;;;;;;;;;;6.50;99.90;;;;;;5017162;28;20378;-81
2022/11/25 03:07:06;;;;;;;;;;;6.50;99.90;;;;;;5035246;28;20011;-81
2022/11/25 03:09:32;;;;;;;;;;;7.00;99.90;;;;;;5032104;28;19929;-81
2022/11/25 03:14:41;;;;;;;;;;;6.50;99.90;;;;;;5017826;28;19924;-81
2022/11/25 03:17:07;;;;;;;;;;;6.60;99.90;;;;;;5018720;28;19927;-81
2022/11/25 03:19:32;;;;;;;;;;;6.50;99.90;;;;;;5030073;28;19967;-80
2022/11/25 03:21:58;;;;;;;;;;;6.50;99.90;;;;;;5016489;28;19928;-80
2022/11/25 03:24:24;;;;;;;;;;;6.50;99.90;;;;;;5016814;28;19924;-80
2022/11/25 03:26:49;;;;;;;;;;;6.50;99.90;;;;;;5017421;28;19929;-81
2022/11/25 03:29:15;;;;;;;;;;;6.50;99.90;;;;;;5036234;28;19925;-81
2022/11/25 03:31:40;;;;;;;;;;;6.50;99.90;;;;;;5038376;28;20249;-80
2022/11/25 03:34:06;;;;;;;;;;;6.50;99.90;;;;;;5005842;28;19924;-81
2022/11/25 03:36:31;;;;;;;;;;;6.50;99.90;;;;;;5022709;28;19928;-81
2022/11/25 03:38:57;;;;;;;;;;;7.00;99.90;;;;;;5020313;28;20007;-81
2022/11/25 03:41:22;;;;;;;;;;;6.50;99.90;;;;;;5040829;28;19920;-81
2022/11/25 03:43:48;;;;;;;;;;;6.50;99.90;;;;;;5024584;28;19921;-80
2022/11/25 03:46:14;;;;;;;;;;;6.50;99.90;;;;;;5042215;28;20873;-80
2022/11/25 03:48:39;;;;;;;;;;;6.50;99.90;;;;;;5025776;28;19950;-80
2022/11/25 03:51:05;;;;;;;;;;;6.50;99.90;;;;;;5022756;28;19928;-80
2022/11/25 03:53:30;;;;;;;;;;;6.50;99.90;;;;;;5040832;28;19966;-80
2022/11/25 03:55:56;;;;;;;;;;;6.50;99.90;;;;;;5023315;28;19983;-81
2022/11/25 03:58:21;;;;;;;;;;;6.50;99.90;;;;;;5024686;28;20401;-80
2022/11/25 04:00:47;;;;;;;;;;;6.50;99.90;;;;;;5024463;28;19928;-80
2022/11/25 04:03:12;;;;;;;;;;;7.20;99.90;;;;;;5026617;28;19921;-80
2022/11/25 04:05:38;;;;;;;;;;;6.50;99.90;;;;;;5006326;28;19967;-79
2022/11/25 04:08:04;;;;;;;;;;;6.80;99.90;;;;;;5021947;28;20385;-80
2022/11/25 04:10:29;;;;;;;;;;;6.40;99.90;;;;;;5039125;28;19964;-80
2022/11/25 04:12:55;;;;;;;;;;;6.50;99.90;;;;;;5005172;28;19964;-80
2022/11/25 04:15:20;;;;;;;;;;;6.50;99.90;;;;;;5021714;28;19943;-80
2022/11/25 04:17:46;;;;;;;;;;;6.50;99.90;;;;;;5039037;28;20817;-80
2022/11/25 04:20:12;;;;;;;;;;;6.50;99.90;;;;;;5019839;28;19920;-80
2022/11/25 04:22:37;;;;;;;;;;;6.50;99.90;;;;;;5036992;28;19927;-80
2022/11/25 04:25:03;;;;;;;;;;;6.50;99.90;;;;;;5037600;28;20370;-80
2022/11/25 04:27:29;;;;;;;;;;;6.50;99.90;;;;;;5036580;28;19925;-78
2022/11/25 04:29:54;;;;;;;;;;;6.40;99.90;;;;;;5039925;28;19921;-80
2022/11/25 04:32:20;;;;;;;;;;;6.40;99.90;;;;;;5004566;28;19921;-80
2022/11/25 04:34:46;;;;;;;;;;;6.40;99.90;;;;;;5019859;28;19946;-80
2022/11/25 04:37:11;;;;;;;;;;;6.50;99.90;;;;;;5019090;28;19925;-80
2022/11/25 04:39:55;;;;;;;;;;;6.50;99.90;;;;;;5149141;27;19919;-71
2022/11/25 04:42:36;;;;;;;;;;;6.50;99.90;;;;;;5127061;27;19972;-70
2022/11/25 04:45:06;;;;;;;;;;;6.50;99.90;;;;;;5117296;27;20295;-70
2022/11/25 04:47:32;;;;;;;;;;;6.50;99.90;;;;;;5112259;27;19919;-70
2022/11/25 04:49:58;;;;;;;;;;;6.50;99.90;;;;;;5117159;27;19923;-71
2022/11/25 04:52:24;;;;;;;;;;;6.60;99.90;;;;;;5115755;27;19929;-70
2022/11/25 04:54:49;;;;;;;;;;;6.60;99.90;;;;;;5150973;27;19919;-70
2022/11/25 04:57:15;;;;;;;;;;;6.60;99.90;;;;;;5114868;27;20299;-71
2022/11/25 04:59:41;;;;;;;;;;;6.60;99.90;;;;;;5127455;27;19965;-70
2022/11/25 05:02:18;;;;;;;;;;;6.60;99.90;;;;;;5134091;27;19920;-70
2022/11/25 05:04:44;;;;;;;;;;;6.60;99.90;;;;;;5127072;27;20276;-71
2022/11/25 05:07:10;;;;;;;;;;;6.60;99.90;;;;;;5135581;27;19920;-70
2022/11/25 05:09:36;;;;;;;;;;;6.60;99.90;;;;;;5159429;27;20441;-70
2022/11/25 05:12:03;;;;;;;;;;;6.60;99.90;;;;;;5143258;27;19919;-70
2022/11/25 05:14:28;;;;;;;;;;;6.70;99.90;;;;;;5126893;27;19968;-71
2022/11/25 05:16:54;;;;;;;;;;;6.70;99.90;;;;;;5123826;27;19923;-71
2022/11/25 05:19:19;;;;;;;;;;;6.70;99.90;;;;;;5132535;27;20034;-70
2022/11/25 05:21:45;;;;;;;;;;;6.60;99.90;;;;;;5114761;27;19962;-71
2022/11/25 05:24:11;;;;;;;;;;;6.70;99.90;;;;;;5125573;27;20353;-69
2022/11/25 05:26:36;;;;;;;;;;;6.70;99.90;;;;;;5129329;27;20391;-71
2022/11/25 05:29:02;;;;;;;;;;;6.70;99.90;;;;;;5126487;27;20203;-71
2022/11/25 05:31:28;;;;;;;;;;;6.60;99.90;;;;;;5131208;27;20060;-71
2022/11/25 05:33:53;;;;;;;;;;;6.70;99.90;;;;;;5126196;27;19919;-69
2022/11/25 05:36:19;;;;;;;;;;;6.70;99.90;;;;;;5154650;27;20007;-70
2022/11/25 05:38:45;;;;;;;;;;;6.70;99.90;;;;;;5143076;27;19927;-71
2022/11/25 05:41:11;;;;;;;;;;;6.80;99.90;;;;;;5132519;27;20045;-71
2022/11/25 05:43:36;;;;;;;;;;;6.80;99.90;;;;;;5148619;27;19919;-70
2022/11/25 05:46:06;;;;;;;;;;;6.80;99.90;;;;;;5126439;27;20296;-70
2022/11/25 05:48:32;;;;;;;;;;;6.80;99.90;;;;;;5109560;27;19920;-70
2022/11/25 05:51:01;;;;;;;;;;;6.80;99.90;;;;;;5114201;27;20270;-70
2022/11/25 05:53:27;;;;;;;;;;;6.90;99.90;;;;;;5121085;27;19926;-70
2022/11/25 05:55:55;;;;;;;;;;;6.90;99.90;;;;;;5112835;27;19920;-70
2022/11/25 05:58:21;;;;;;;;;;;6.90;99.90;;;;;;5111272;27;19924;-70
2022/11/25 06:00:46;;;;;;;;;;;6.90;99.90;;;;;;5112849;27;19961;-71
2022/11/25 06:03:12;;;;;;;;;;;6.90;99.90;;;;;;5113759;27;19967;-70
2022/11/25 06:05:38;;;;;;;;;;;6.90;99.90;;;;;;5110398;27;19920;-70
2022/11/25 06:08:04;;;;;;;;;;;6.90;99.90;;;;;;5113167;27;19946;-70
2022/11/25 06:10:30;;;;;;;;;;;7.00;99.90;;;;;;5112731;27;19919;-70
2022/11/25 06:12:55;;;;;;;;;;;7.10;99.90;;;;;;5120328;27;19976;-69
2022/11/25 06:15:21;;;;;;;;;;;7.10;99.90;;;;;;5110218;28;20403;-70
2022/11/25 06:17:46;;;;;;;;;;;7.10;99.90;;;;;;5112484;27;19935;-70
2022/11/25 06:20:12;;;;;;;;;;;7.30;99.90;;;;;;5084370;27;19998;-69
2022/11/25 06:22:38;;;;;;;;;;;7.30;99.90;;;;;;5112339;27;19928;-70
2022/11/25 06:25:03;;;;;;;;;;;7.60;99.90;;;;;;5115525;27;19926;-71
2022/11/25 06:27:29;;;;;;;;;;;7.40;99.90;;;;;;5094642;28;20403;-71
2022/11/25 06:29:55;;;;;;;;;;;7.40;99.90;;;;;;5109931;27;19985;-71
2022/11/25 06:32:20;;;;;;;;;;;7.50;99.90;;;;;;5113853;27;19916;-70
2022/11/25 06:34:46;;;;;;;;;;;7.50;99.90;;;;;;5120693;27;19920;-70
2022/11/25 06:37:12;;;;;;;;;;;7.50;99.90;;;;;;5112515;27;19971;-70
2022/11/25 06:39:37;;;;;;;;;;;7.50;99.90;;;;;;5120967;27;20376;-70
2022/11/25 06:42:03;;;;;;;;;;;7.50;99.90;;;;;;5109367;27;20138;-70
2022/11/25 06:44:28;;;;;;;;;;;7.50;99.90;;;;;;5144892;27;19954;-70
2022/11/25 06:46:54;;;;;;;;;;;7.50;99.90;;;;;;5114402;27;19919;-71
2022/11/25 06:49:20;;;;;;;;;;;7.50;99.90;;;;;;5110449;27;19995;-71
2022/11/25 06:51:47;;;;;;;;;;;7.50;99.90;;;;;;5111588;27;20404;-70
2022/11/25 06:54:13;;;;;;;;;;;7.50;99.90;;;;;;5114683;27;19927;-70
2022/11/25 06:56:39;;;;;;;;;;;7.50;99.90;;;;;;5091880;28;19924;-70
2022/11/25 06:59:05;;;;;;;;;;;7.50;99.90;;;;;;5103979;27;20006;-70
2022/11/25 07:01:31;;;;;;;;;;;7.50;99.90;;;;;;5109770;27;19972;-70
2022/11/25 07:04:03;;;;;;;;;;;7.50;99.90;;;;;;5102389;28;20381;-70
2022/11/25 07:06:30;;;;;;;;;;;7.50;99.90;;;;;;5109772;27;19920;-70
2022/11/25 07:08:56;;;;;;;;;;;7.50;99.90;;;;;;5109824;27;19953;-70
2022/11/25 07:11:23;;;;;;;;;;;7.50;99.90;;;;;;5110841;27;19920;-70
2022/11/25 07:13:53;;;;;;;;;;;7.50;99.90;;;;;;5093034;28;19920;-70
2022/11/25 07:16:18;;;;;;;;;;;7.50;99.90;;;;;;5124973;27;19935;-70
2022/11/25 07:18:44;;;;;;;;;;;7.50;99.90;;;;;;5112676;27;19928;-71
2022/11/25 07:21:14;;;;;;;;;;;7.50;99.90;;;;;;5109280;27;19919;-70
2022/11/25 07:23:40;;;;;;;;;;;7.60;99.90;;;;;;5112591;27;20262;-70
2022/11/25 07:26:06;;;;;;;;;;;7.60;99.90;;;;;;5128876;27;20048;-70
2022/11/25 07:28:32;;;;;;;;;;;7.60;99.90;;;;;;5108845;27;20095;-70
2022/11/25 07:31:27;;;;;;;;;;;7.60;99.90;;;;;;5110636;27;19920;-70
2022/11/25 07:33:54;;;;;;;;;;;7.60;99.90;;;;;;5127816;27;19930;-70
2022/11/25 07:36:20;;;;;;;;;;;7.60;99.90;;;;;;5116690;27;20088;-70
2022/11/25 07:38:46;;;;;;;;;;;7.60;99.90;;;;;;5108087;27;19924;-70
2022/11/25 07:41:13;;;;;;;;;;;7.60;99.90;;;;;;5111545;27;19927;-70
2022/11/25 07:43:39;;;;;;;;;;;7.60;99.90;;;;;;5105439;28;20010;-70
2022/11/25 07:46:28;;;;;;;;;;;7.50;99.90;;;;;;5092194;28;20015;-70
2022/11/25 07:48:54;;;;;;;;;;;7.60;99.90;;;;;;5135513;27;19920;-70
2022/11/25 07:51:22;;;;;;;;;;;7.80;99.90;;;;;;5108393;27;19920;-70
2022/11/25 07:53:48;;;;;;;;;;;7.60;99.90;;;;;;5097648;28;20387;-70
2022/11/25 07:56:14;;;;;;;;;;;7.60;99.90;;;;;;5124254;27;19935;-70
2022/11/25 07:58:40;;;;;;;;;;;7.60;99.90;;;;;;5109180;27;19928;-70
2022/11/25 08:01:06;;;;;;;;;;;7.60;99.90;;;;;;5090274;28;19920;-70
2022/11/25 08:03:32;;;;;;;;;;;7.60;99.90;;;;;;5110266;28;19920;-70
2022/11/25 08:06:02;;;;;;;;;;;7.60;99.90;;;;;;5107981;28;20296;-70
2022/11/25 08:08:27;;;;;;;;;;;7.60;99.90;;;;;;5110010;28;19994;-70
2022/11/25 08:10:53;;;;;;;;;;;7.60;99.90;;;;;;5119706;27;20378;-70
2022/11/25 08:13:19;;;;;;;;;;;7.50;99.90;;;;;;5108139;28;19946;-70
2022/11/25 08:15:45;;;;;;;;;;;7.60;99.90;;;;;;5120680;27;19930;-70
2022/11/25 08:18:10;;;;;;;;;;;7.60;99.90;;;;;;5106937;28;20435;-70
2022/11/25 08:20:36;;;;;;;;;;;7.60;99.90;;;;;;5092865;28;19969;-70
2022/11/25 08:23:02;;;;;;;;;;;7.60;99.90;;;;;;5093026;28;19945;-70
2022/11/25 08:25:28;;;;;;;;;;;7.60;99.90;;;;;;5095420;27;19927;-70
2022/11/25 08:27:54;;;;;;;;;;;7.60;99.90;;;;;;5092055;28;20066;-70
2022/11/25 08:30:23;;;;;;;;;;;7.60;99.90;;;;;;5129437;27;20402;-70
2022/11/25 08:32:49;;;;;;;;;;;7.60;99.90;;;;;;5107745;28;20014;-70
2022/11/25 08:35:14;;;;;;;;;;;7.60;99.90;;;;;;5115704;28;20038;-70
2022/11/25 08:37:40;;;;;;;;;;;7.60;99.90;;;;;;5090882;28;19923;-70
2022/11/25 08:40:06;;;;;;;;;;;7.60;99.90;;;;;;5116850;28;20372;-70
2022/11/25 08:42:32;;;;;;;;;;;7.60;99.90;;;;;;5112125;28;20351;-70
2022/11/25 08:44:58;;;;;;;;;;;7.60;99.90;;;;;;5090516;28;20044;-70
2022/11/25 08:47:24;;;;;;;;;;;7.70;99.90;;;;;;5109439;28;19927;-70
2022/11/25 08:49:53;;;;;;;;;;;7.90;99.90;;;;;;5102428;28;19919;-70
2022/11/25 08:52:19;;;;;;;;;;;8.00;99.90;;;;;;5112748;28;19919;-70
2022/11/25 08:54:45;;;;;;;;;;;8.30;99.90;;;;;;5108978;28;20364;-70
2022/11/25 08:57:11;;;;;;;;;;;8.50;99.90;;;;;;5114347;28;20014;-70
2022/11/25 08:59:37;;;;;;;;;;;8.70;99.90;;;;;;5107215;28;19920;-70
2022/11/25 09:02:04;;;;;;;;;;;9.20;99.90;;;;;;5109565;28;19981;-70
2022/11/25 09:04:29;;;;;;;;;;;9.50;99.90;;;;;;5110097;28;19920;-71
2022/11/25 09:06:55;;;;;;;;;;;9.60;99.90;;;;;;5145042;27;20384;-71
2022/11/25 09:09:21;;;;;;;;;;;9.50;99.90;;;;;;5130569;27;19926;-71
2022/11/25 09:11:46;;;;;;;;;;;9.50;99.90;;;;;;5110955;28;19928;-70
2022/11/25 09:14:12;;;;;;;;;;;9.50;99.90;;;;;;5108144;28;19926;-70
2022/11/25 09:16:37;;;;;;;;;;;9.40;99.90;;;;;;5112607;28;19933;-70
2022/11/25 09:19:03;;;;;;;;;;;9.30;99.90;;;;;;5125695;27;19920;-71
2022/11/25 09:21:29;;;;;;;;;;;9.20;99.90;;;;;;5097434;28;19924;-70
2022/11/25 09:23:55;;;;;;;;;;;9.10;99.90;;;;;;5109414;28;20430;-70
2022/11/25 09:26:25;;;;;;;;;;;8.90;99.90;;;;;;5137235;27;20265;-70
2022/11/25 09:28:51;;;;;;;;;;;8.80;99.90;;;;;;5122755;27;19927;-70
2022/11/25 09:31:16;;;;;;;;;;;8.80;99.90;;;;;;5117184;27;19920;-70
2022/11/25 09:33:43;;;;;;;;;;;8.80;99.90;;;;;;5149582;27;19919;-70
2022/11/25 09:36:10;;;;;;;;;;;8.70;99.90;;;;;;5112149;27;20034;-70
2022/11/25 09:38:36;;;;;;;;;;;8.70;99.90;;;;;;5111571;27;19924;-70
2022/11/25 09:46:40;;;;;;;;;;;8.70;99.90;;;;;;5111823;27;19920;-70
2022/11/25 09:47:19;;;;;;;;;;;8.70;99.90;;;;;;5110470;28;19920;-70
2022/11/25 09:49:53;;;;;;;;;;;8.70;99.90;;;;;;5109427;27;20411;-70
2022/11/25 09:52:19;;;;;;;;;;;8.70;99.90;;;;;;5116091;27;20258;-70
2022/11/25 09:54:57;;;;;;;;;;;8.70;99.90;;;;;;5111524;27;19945;-70
2022/11/25 09:57:26;;;;;;;;;;;8.70;99.90;;;;;;5110525;27;19934;-70
2022/11/25 10:00:00;;;;;;;;;;;8.70;99.90;;;;;;5110522;27;19924;-70
2022/11/25 10:02:29;;;;;;;;;;;8.70;99.90;;;;;;5110400;27;19920;-70
2022/11/25 10:05:01;;;;;;;;;;;8.70;99.90;;;;;;5109658;27;19923;-70
2022/11/25 10:07:35;;;;;;;;;;;8.70;99.90;;;;;;5117324;27;19920;-70
2022/11/25 10:10:02;;;;;;;;;;;8.70;99.90;;;;;;5114510;27;20377;-70
2022/11/25 10:12:31;;;;;;;;;;;8.70;99.90;;;;;;5147400;27;19920;-70
2022/11/25 10:15:04;;;;;;;;;;;8.70;99.90;;;;;;5115199;27;19945;-70
2022/11/25 10:17:36;;;;;;;;;;;8.70;99.90;;;;;;5109992;28;19980;-70
2022/11/25 10:20:02;;;;;;;;;;;8.80;99.90;;;;;;5127818;27;20014;-70
2022/11/25 10:22:32;;;;;;;;;;;8.90;99.90;;;;;;5111195;27;20002;-70
2022/11/25 10:25:19;;;;;;;;;;;8.90;99.90;;;;;;5111119;28;20284;-70
2022/11/25 10:27:59;;;;;;;;;;;9.00;99.90;;;;;;5110116;27;19931;-70
2022/11/25 10:30:29;;;;;;;;;;;9.10;99.90;;;;;;5113722;27;19970;-70
2022/11/25 10:33:12;;;;;;;;;;;9.00;99.90;;;;;;5112055;27;20358;-70
2022/11/25 10:35:40;;;;;;;;;;;9.10;99.90;;;;;;5110205;27;19920;-70
2022/11/25 10:38:10;;;;;;;;;;;9.40;99.90;;;;;;5126761;27;19924;-70
2022/11/25 10:40:35;;;;;;;;;;;9.50;99.90;;;;;;5113958;27;19924;-70
2022/11/25 10:43:08;;;;;;;;;;;9.60;99.90;;;;;;5112611;27;19919;-70
2022/11/25 10:45:39;;;;;;;;;;;9.60;99.90;;;;;;5134501;27;20330;-70
2022/11/25 10:48:05;;;;;;;;;;;9.60;99.90;;;;;;5115562;27;20416;-70
2022/11/25 10:50:30;;;;;;;;;;;9.50;99.90;;;;;;5112786;27;19924;-70
2022/11/25 10:52:58;;;;;;;;;;;9.40;99.90;;;;;;5110538;27;19924;-70
2022/11/25 10:55:26;;;;;;;;;;;9.40;99.90;;;;;;5108980;27;19968;-70
2022/11/25 10:57:53;;;;;;;;;;;9.40;99.90;;;;;;5112295;27;19988;-70
2022/11/25 11:00:29;;;;;;;;;;;9.40;99.90;;;;;;5120850;27;19947;-70
2022/11/25 11:02:56;;;;;;;;;;;9.40;99.90;;;;;;5110688;27;19927;-70
2022/11/25 11:05:23;;;;;;;;;;;9.40;99.90;;;;;;5117713;27;20002;-70
2022/11/25 11:08:05;;;;;;;;;;;9.30;99.90;;;;;;5104695;27;20387;-70
2022/11/25 11:10:30;;;;;;;;;;;9.40;99.90;;;;;;5144621;27;19920;-70
2022/11/25 11:12:58;;;;;;;;;;;9.40;99.90;;;;;;5099906;28;19920;-70
2022/11/25 11:15:25;;;;;;;;;;;9.30;99.90;;;;;;5112328;27;20310;-70
2022/11/25 11:17:52;;;;;;;;;;;9.40;99.90;;;;;;5107738;27;19924;-70
2022/11/25 11:20:22;;;;;;;;;;;9.40;99.90;;;;;;5113760;27;19963;-70
2022/11/25 11:22:57;;;;;;;;;;;9.40;99.90;;;;;;5109930;27;19919;-70
2022/11/25 11:25:27;;;;;;;;;;;9.40;99.90;;;;;;5110047;27;19920;-70
2022/11/25 11:27:53;;;;;;;;;;;9.40;99.90;;;;;;5109054;27;20462;-70
2022/11/25 11:30:20;;;;;;;;;;;9.40;99.90;;;;;;5111012;27;20300;-70
2022/11/25 11:33:01;;;;;;;;;;;9.50;99.90;;;;;;5111086;27;20420;-70
2022/11/25 11:35:45;;;;;;;;;;;9.50;99.90;;;;;;5111407;27;19926;-70
2022/11/25 11:38:20;;;;;;;;;;;9.50;99.90;;;;;;5115878;27;20265;-70
2022/11/25 11:40:49;;;;;;;;;;;9.50;99.90;;;;;;5144576;27;19924;-70
2022/11/25 11:43:28;;;;;;;;;;;9.50;99.90;;;;;;5118077;27;19955;-70
2022/11/25 11:46:17;;;;;;;;;;;9.50;99.90;;;;;;5110135;27;19926;-70
2022/11/25 11:48:57;;;;;;;;;;;9.60;99.90;;;;;;5083188;28;19923;-70
2022/11/25 11:51:29;;;;;;;;;;;9.60;99.90;;;;;;5110126;27;20019;-70
2022/11/25 11:54:02;;;;;;;;;;;9.60;99.90;;;;;;5091817;28;20338;-70
2022/11/25 11:56:36;;;;;;;;;;;9.70;99.90;;;;;;5126044;27;19919;-70
2022/11/25 11:59:21;;;;;;;;;;;9.70;99.90;;;;;;5114580;27;20441;-69
2022/11/25 12:02:05;;;;;;;;;;;9.80;99.90;;;;;;5108311;27;19924;-70
2022/11/25 12:04:43;;;;;;;;;;;9.80;99.90;;;;;;5090721;28;19969;-70
2022/11/25 12:07:38;;;;;;;;;;;9.90;99.90;;;;;;5101143;28;19927;-70
2022/11/25 12:10:07;;;;;;;;;;;10.00;99.90;;;;;;5058084;28;19920;-70
2022/11/25 12:12:36;;;;;;;;;;;10.10;99.90;;;;;;5109259;27;19920;-70
2022/11/25 12:15:04;;;;;;;;;;;10.20;99.90;;;;;;5111367;27;19920;-70
2022/11/25 12:17:36;;;;;;;;;;;10.30;99.90;;;;;;5124943;27;19935;-70
2022/11/25 12:20:04;;;;;;;;;;;10.50;99.90;;;;;;5112804;27;19924;-70
2022/11/25 12:22:33;;;;;;;;;;;10.60;99.90;;;;;;5091221;28;19924;-70
2022/11/25 12:25:10;;;;;;;;;;;10.60;99.90;;;;;;5107728;28;20060;-70
2022/11/25 12:27:45;;;;;;;;;;;10.60;99.90;;;;;;5107869;28;19927;-70
2022/11/25 12:30:18;;;;;;;;;;;10.50;99.90;;;;;;5113277;27;19927;-70
2022/11/25 12:32:52;;;;;;;;;;;10.50;99.90;;;;;;5091399;28;19920;-70
2022/11/25 12:35:20;;;;;;;;;;;10.40;99.90;;;;;;5107947;27;20337;-70
2022/11/25 12:37:55;;;;;;;;;;;10.30;99.90;;;;;;5106981;28;19919;-70
2022/11/25 12:40:41;;;;;;;;;;;10.20;99.90;;;;;;5125642;27;19924;-70
2022/11/25 12:43:16;;;;;;;;;;;10.20;99.90;;;;;;5108825;28;19919;-70
2022/11/25 12:45:43;;;;;;;;;;;10.20;99.90;;;;;;5128068;27;19920;-70
2022/11/25 12:48:10;;;;;;;;;;;10.20;99.90;;;;;;5109372;28;19927;-70
2022/11/25 12:50:48;;;;;;;;;;;10.20;99.90;;;;;;5105109;28;20478;-70
2022/11/25 12:53:43;;;;;;;;;;;10.20;99.90;;;;;;5104406;28;19920;-70
2022/11/25 12:56:13;;;;;;;;;;;10.20;99.90;;;;;;5053743;28;19921;-70
2022/11/25 12:58:52;;;;;;;;;;;10.30;99.90;;;;;;5100512;28;19931;-69
2022/11/25 13:01:18;;;;;;;;;;;10.20;99.90;;;;;;5111307;27;20015;-70
2022/11/25 13:03:54;;;;;;;;;;;10.30;99.90;;;;;;5116399;27;20011;-70
2022/11/25 13:06:37;;;;;;;;;;;10.30;99.90;;;;;;5112212;27;20414;-70
2022/11/25 13:09:11;;;;;;;;;;;10.30;99.90;;;;;;5112393;27;19961;-70
2022/11/25 13:11:54;;;;;;;;;;;10.20;99.90;;;;;;5115257;27;19919;-70
2022/11/25 13:14:23;;;;;;;;;;;10.20;99.90;;;;;;5113568;27;19920;-70
2022/11/25 13:16:49;;;;;;;;;;;10.20;99.90;;;;;;5115384;27;20376;-70
2022/11/25 13:19:18;;;;;;;;;;;10.20;99.90;;;;;;5110382;28;19954;-70
2022/11/25 13:21:56;;;;;;;;;;;10.30;99.90;;;;;;5111092;27;19920;-70
2022/11/25 13:24:41;;;;;;;;;;;10.40;99.90;;;;;;5111242;27;19926;-70
2022/11/25 13:27:27;;;;;;;;;;;10.50;99.90;;;;;;5111537;27;19950;-70
2022/11/25 13:29:53;;;;;;;;;;;10.50;99.90;;;;;;5149023;27;20343;-70
2022/11/25 13:32:32;;;;;;;;;;;10.50;99.90;;;;;;5112674;27;20486;-70
2022/11/25 13:35:16;;;;;;;;;;;10.60;99.90;;;;;;5113511;27;19924;-70
2022/11/25 13:37:42;;;;;;;;;;;10.60;99.90;;;;;;5110982;27;19920;-70
2022/11/25 13:40:32;;;;;;;;;;;10.50;99.90;;;;;;5115993;27;20293;-70
2022/11/25 13:42:59;;;;;;;;;;;10.50;99.90;;;;;;5145968;27;19994;-70
2022/11/25 13:45:24;;;;;;;;;;;10.40;99.90;;;;;;5111784;27;19934;-70
2022/11/25 13:47:50;;;;;;;;;;;10.40;99.90;;;;;;5112641;27;20284;-70
2022/11/25 13:50:16;;;;;;;;;;;10.40;99.90;;;;;;5112233;27;20006;-70
2022/11/25 13:52:45;;;;;;;;;;;10.30;99.90;;;;;;5112226;27;20031;-70
2022/11/25 13:55:17;;;;;;;;;;;10.30;99.90;;;;;;5111652;27;19927;-70
2022/11/25 13:57:44;;;;;;;;;;;10.20;99.90;;;;;;5146386;27;20538;-70
2022/11/25 14:00:19;;;;;;;;;;;10.10;99.90;;;;;;5119976;27;19931;-70
2022/11/25 14:02:45;;;;;;;;;;;10.00;99.90;;;;;;5095041;27;19987;-70
2022/11/25 14:05:17;;;;;;;;;;;10.00;99.90;;;;;;5120963;27;19999;-70
2022/11/25 14:07:48;;;;;;;;;;;9.90;99.90;;;;;;5111415;27;19919;-70
2022/11/25 14:10:19;;;;;;;;;;;9.90;99.90;;;;;;5112574;27;19920;-70
2022/11/25 14:12:55;;;;;;;;;;;9.90;99.90;;;;;;5094994;27;20007;-70
2022/11/25 14:15:26;;;;;;;;;;;9.90;99.90;;;;;;5113886;27;19927;-70
2022/11/25 14:17:58;;;;;;;;;;;9.80;99.90;;;;;;5107916;27;19919;-70
2022/11/25 14:20:43;;;;;;;;;;;9.80;99.90;;;;;;5112607;27;19943;-70
2022/11/25 14:23:14;;;;;;;;;;;9.80;99.90;;;;;;5112853;27;19974;-70
2022/11/25 14:25:48;;;;;;;;;;;9.80;99.90;;;;;;5112135;27;20146;-70
2022/11/25 14:28:19;;;;;;;;;;;9.70;99.90;;;;;;5107333;27;19919;-70
2022/11/25 14:30:47;;;;;;;;;;;9.60;99.90;;;;;;5112171;27;19971;-70
2022/11/25 14:33:15;;;;;;;;;;;9.60;99.90;;;;;;5114234;27;19927;-70
2022/11/25 14:35:45;;;;;;;;;;;9.60;99.90;;;;;;5114206;27;20317;-70
2022/11/25 14:38:19;;;;;;;;;;;9.60;99.90;;;;;;5109111;28;19924;-70
2022/11/25 14:40:45;;;;;;;;;;;9.50;99.90;;;;;;5112478;27;19928;-70
2022/11/25 14:43:15;;;;;;;;;;;9.60;99.90;;;;;;5116592;27;20241;-70
2022/11/25 14:45:41;;;;;;;;;;;9.50;99.90;;;;;;5118112;27;19923;-70